Nearby METAR Reports

 

KCOS - Colorado Springs, Colorado, USA
Distance from station: S 6mi, 9km
Updated: 05/24/2019 9:54am
Partly cloudy
Partly cloudy
 Wind from SSW
Wind: SSW 23 mph , 37 km/h, Gust: 33 mph , 54 km/h
Temperature: 59°F , 15°C
Dew Point: 21°F , -6°C
Humidity: 23%
Barometer: 30.01 inHg , 1016.3 hPa
Clouds: Partly cloudy
Visibility: 10 miles , 16 km
Cloud details: Partly cloudy 22000 ft
2019/05/24 15:54 KCOS 241554Z 20020G29KT 10SM SCT220 15/M06 A3001 RMK AO2 PK WND 21029/1550 SLP128 T01501056
KAFF - Usaf Academy/Cos, Colorado, USA
Distance from station: NW 7mi, 12km
Updated: 05/24/2019 9:58am
Clear
Clear
 Wind from SE
Wind: SE 8 mph , 13 km/h
Temperature: 54°F , 12°C
Dew Point: 23°F , -5°C
Humidity: 30%
Barometer: 30.00 inHg , 1015.9 hPa
Clouds: Clear
Visibility: 10 miles , 16 km
2019/05/24 15:58 KAFF 241558Z AUTO 13007KT 10SM CLR 12/M05 A3000 RMK AO2 SLP129 T01241047
 
KFLY - Co Spngs Meadow, Colorado, USA
Distance from station: ENE 8mi, 13km
Updated: 05/24/2019 10:35am
Clear
Clear
 Wind from WSW
Wind: WSW 10 mph , 17 km/h, Gust: 17 mph , 28 km/h
Temperature: 55°F , 13°C
Dew Point: 23°F , -5°C
Humidity: 28%
Barometer: 30.04 inHg , 1017.3 hPa
Clouds: Clear
Visibility: 10 miles , 16 km
2019/05/24 16:35 KFLY 241635Z AUTO 25009G15KT 10SM CLR 13/M05 A3004 RMK AO2 T01321054
KFCS - Fort Carson, Colorado, USA
Distance from station: S 17mi, 27km
Updated: 05/24/2019 9:58am
Clear
Clear
 Wind from SW
Wind: SW 16 mph , 26 km/h, Gust: 25 mph , 41 km/h
Temperature: 59°F , 15°C
Dew Point: 23°F , -5°C
Humidity: 25%
Barometer: 29.97 inHg , 1014.9 hPa
Clouds: Clear
Visibility: 10 miles , 16 km
2019/05/24 15:58 KFCS 241558Z AUTO 22014G22KT 10SM CLR 15/M05 A2997 RMK AO2 SLP144 T01501049 $
 
KMNH - Monument/Elbert, Colorado, USA
Distance from station: N 22mi, 35km
Updated: 05/24/2019 10:32am
Clear
Clear
 Wind from S
Wind: S 15 mph , 24 km/h, Gust: 26 mph , 43 km/h
Temperature: 52°F , 11°C
Dew Point: 23°F , -5°C
Humidity: 32%
Barometer: 30.02 inHg , 1016.6 hPa
Clouds: Clear
Visibility: 10 miles , 16 km
2019/05/24 16:32 KMNH 241632Z AUTO 19013G23KT 10SM CLR 11/M05 A3002 RMK AO2
K1V6 - Canon City, Colorado, USA
Distance from station: SSW 39mi, 62km
Updated: 05/24/2019 10:30am
Clear
Clear
 Wind from WSW
Wind: WSW 5 mph , 7 km/h
Temperature: 63°F , 17°C
Dew Point: 28°F , -2°C
Humidity: 27%
Barometer: 29.99 inHg , 1015.6 hPa
Clouds: Clear
Visibility: 10 miles , 16 km
2019/05/24 16:30 K1V6 241630Z AUTO 25004KT 10SM CLR 17/M02 A2999 RMK AO2
 
KPUB - Pueblo, Colorado, USA
Distance from station: SSE 44mi, 71km
Updated: 05/24/2019 9:53am
Clear
Clear
 Wind from calm
Wind: Calm
Temperature: 59°F , 15°C
Dew Point: 32°F , 0°C
Humidity: 36%
Barometer: 30.00 inHg , 1015.9 hPa
Clouds: Clear
Visibility: 10 miles , 16 km
2019/05/24 15:53 KPUB 241553Z 00000KT 10SM CLR 15/00 A3000 RMK AO2 SLP131 T01500000 $
KAPA - Denver/Arapahoe, Colorado, USA
Distance from station: N 47mi, 75km
Updated: 05/24/2019 9:53am
Few Clouds
Few Clouds
 Wind from SW
Wind: SW 13 mph , 20 km/h, Gust: 24 mph , 39 km/h
Temperature: 57°F , 14°C
Dew Point: 25°F , -4°C
Humidity: 29%
Barometer: 29.96 inHg , 1014.6 hPa
Clouds: Few Clouds
Visibility: 10 miles , 16 km
Cloud details: Few Clouds 22000 ft
2019/05/24 15:53 KAPA 241553Z 22011G21KT 10SM FEW220 14/M04 A2996 RMK AO2 SLP121 T01441044